Time;durP1;ratioP1;P1;durP2;ratioP2;P2;SDS_P1;SDS_P2;PMS_P1;PMS_P2;Temp;Humidity;BMP_temperature;BMP_pressure;BME280_temperature;BME280_humidity;BME280_pressure;Samples;Min_cycle;Max_cycle;Signal;HPM_P1;HPM_P2
2023/08/09 00:01:35;;;;;;;9.60;4.88;;;;;;;;;;4912672;29;20048;-86
2023/08/09 00:04:01;;;;;;;9.27;4.85;;;;;;;;;;4914107;29;20444;-86
2023/08/09 00:06:27;;;;;;;8.10;4.70;;;;;;;;;;4910879;29;20060;-86
2023/08/09 00:08:52;;;;;;;7.78;4.45;;;;;;;;;;4903140;29;20744;-88
2023/08/09 00:11:17;;;;;;;9.50;5.53;;;;;;;;;;4904798;29;20044;-88
2023/08/09 00:13:43;;;;;;;9.43;5.70;;;;;;;;;;4903246;29;20051;-87
2023/08/09 00:16:09;;;;;;;8.15;5.18;;;;;;;;;;4903549;29;20040;-88
2023/08/09 00:18:35;;;;;;;9.77;5.68;;;;;;;;;;4904812;29;20428;-87
2023/08/09 00:21:01;;;;;;;10.63;5.28;;;;;;;;;;4903190;29;20041;-86
2023/08/09 00:23:26;;;;;;;9.45;5.18;;;;;;;;;;4886556;29;20131;-88
2023/08/09 00:25:52;;;;;;;7.35;4.80;;;;;;;;;;4910766;29;20044;-88
2023/08/09 00:28:17;;;;;;;7.57;5.00;;;;;;;;;;4904766;29;20453;-88
2023/08/09 00:30:43;;;;;;;12.02;6.15;;;;;;;;;;4886723;29;20358;-86
2023/08/09 00:33:09;;;;;;;11.80;5.85;;;;;;;;;;4905406;29;20064;-88
2023/08/09 00:35:34;;;;;;;11.45;7.18;;;;;;;;;;4905198;29;20453;-89
2023/08/09 00:38:00;;;;;;;8.65;5.97;;;;;;;;;;4903608;29;20052;-87
2023/08/09 00:40:25;;;;;;;12.48;7.57;;;;;;;;;;4905308;29;20072;-88
2023/08/09 00:42:51;;;;;;;10.50;7.43;;;;;;;;;;4908105;29;20044;-88
2023/08/09 00:45:16;;;;;;;12.25;6.88;;;;;;;;;;4905595;29;20072;-87
2023/08/09 00:47:42;;;;;;;10.73;6.20;;;;;;;;;;4906411;29;20531;-86
2023/08/09 00:50:08;;;;;;;10.68;5.43;;;;;;;;;;4892759;29;20140;-88
2023/08/09 00:52:34;;;;;;;11.57;6.57;;;;;;;;;;4909725;29;20135;-87
2023/08/09 00:55:00;;;;;;;14.93;7.47;;;;;;;;;;4907768;29;20040;-87
2023/08/09 00:57:26;;;;;;;11.25;6.78;;;;;;;;;;4906224;29;20052;-89
2023/08/09 00:59:52;;;;;;;11.98;7.97;;;;;;;;;;4909466;29;20053;-87
2023/08/09 01:02:18;;;;;;;10.52;7.07;;;;;;;;;;4890425;29;20070;-88
2023/08/09 01:04:44;;;;;;;11.05;6.25;;;;;;;;;;4906401;29;20052;-87
2023/08/09 01:07:39;;;;;;;14.07;7.10;;;;;;;;;;4906540;29;20048;-88
2023/08/09 01:10:15;;;;;;;14.32;8.13;;;;;;;;;;4914034;29;20092;-89
2023/08/09 01:12:45;;;;;;;14.65;7.90;;;;;;;;;;4905896;29;20512;-88
2023/08/09 01:15:15;;;;;;;10.55;6.78;;;;;;;;;;4905284;29;20048;-88
2023/08/09 01:17:41;;;;;;;12.57;7.32;;;;;;;;;;4914046;29;20032;-85
2023/08/09 01:20:11;;;;;;;12.88;7.25;;;;;;;;;;4899100;29;20048;-87
2023/08/09 01:22:41;;;;;;;12.65;8.00;;;;;;;;;;4899799;29;20056;-88
2023/08/09 01:25:08;;;;;;;13.85;7.88;;;;;;;;;;4905788;29;20051;-87
2023/08/09 01:27:35;;;;;;;12.50;8.40;;;;;;;;;;4908207;29;20609;-88
2023/08/09 01:30:01;;;;;;;13.80;8.07;;;;;;;;;;4902534;29;20375;-88
2023/08/09 01:32:28;;;;;;;17.48;8.07;;;;;;;;;;4905990;29;20044;-88
2023/08/09 01:34:54;;;;;;;12.35;8.00;;;;;;;;;;4907227;29;20040;-87
2023/08/09 01:37:28;;;;;;;12.77;7.82;;;;;;;;;;4906367;29;20112;-88
2023/08/09 01:39:57;;;;;;;11.30;7.00;;;;;;;;;;4903568;29;20051;-89
2023/08/09 01:42:23;;;;;;;12.15;7.28;;;;;;;;;;4905765;29;20052;-88
2023/08/09 01:44:50;;;;;;;12.13;5.80;;;;;;;;;;4889252;29;20044;-87
2023/08/09 01:47:16;;;;;;;10.68;5.75;;;;;;;;;;4896973;29;20130;-90
2023/08/09 01:49:47;;;;;;;14.73;5.25;;;;;;;;;;4920978;29;20144;-89
2023/08/09 01:52:13;;;;;;;9.02;5.15;;;;;;;;;;4902802;29;20059;-88
2023/08/09 01:54:38;;;;;;;9.05;5.70;;;;;;;;;;4907205;29;20103;-90
2023/08/09 01:57:07;;;;;;;12.75;5.72;;;;;;;;;;4888209;29;20490;-88
2023/08/09 01:59:33;;;;;;;8.63;5.78;;;;;;;;;;4907398;29;20052;-87
2023/08/09 02:01:58;;;;;;;9.85;6.32;;;;;;;;;;4905074;29;20043;-90
2023/08/09 02:04:27;;;;;;;15.75;6.00;;;;;;;;;;4888848;29;20064;-89
2023/08/09 02:06:53;;;;;;;9.95;6.45;;;;;;;;;;4906152;29;20099;-88
2023/08/09 02:09:18;;;;;;;10.77;6.10;;;;;;;;;;4886605;29;20517;-88
2023/08/09 02:11:44;;;;;;;14.35;7.80;;;;;;;;;;4906264;29;20044;-90
2023/08/09 02:14:10;;;;;;;15.13;7.80;;;;;;;;;;4904296;29;20524;-88
2023/08/09 02:16:35;;;;;;;15.38;7.28;;;;;;;;;;4906889;29;20044;-88
2023/08/09 02:19:01;;;;;;;13.32;8.07;;;;;;;;;;4889244;29;20132;-87
2023/08/09 02:21:26;;;;;;;12.95;7.57;;;;;;;;;;4905745;29;20052;-89
2023/08/09 02:23:52;;;;;;;13.32;7.40;;;;;;;;;;4907198;29;20527;-89
2023/08/09 02:26:21;;;;;;;12.18;7.45;;;;;;;;;;4907392;29;20084;-87
2023/08/09 02:28:46;;;;;;;;;;;;;;;;;;4908597;29;20048;-89
2023/08/09 02:31:14;;;;;;;15.88;7.70;;;;;;;;;;4888126;29;19927;-90
2023/08/09 02:33:39;;;;;;;15.32;7.53;;;;;;;;;;4907122;29;20127;-89
2023/08/09 02:36:05;;;;;;;12.30;7.57;;;;;;;;;;4912716;29;20051;-88
2023/08/09 02:38:34;;;;;;;13.38;7.85;;;;;;;;;;4906251;29;20416;-89
2023/08/09 02:41:04;;;;;;;;;;;;;;;;;;4906618;29;20043;-88
2023/08/09 02:43:29;;;;;;;20.67;8.57;;;;;;;;;;4908741;29;19923;-88
2023/08/09 02:45:55;;;;;;;16.75;8.13;;;;;;;;;;4910257;29;20047;-90
2023/08/09 02:48:22;;;;;;;18.42;7.82;;;;;;;;;;4905413;29;20100;-87
2023/08/09 02:50:48;;;;;;;16.88;7.95;;;;;;;;;;4904875;29;20077;-88
2023/08/09 02:53:15;;;;;;;16.52;7.65;;;;;;;;;;4904765;29;20588;-88
2023/08/09 02:55:40;;;;;;;15.70;8.02;;;;;;;;;;4906078;29;20044;-89
2023/08/09 02:58:05;;;;;;;11.75;6.60;;;;;;;;;;4909356;29;20127;-88
2023/08/09 03:00:32;;;;;;;12.77;7.53;;;;;;;;;;4907263;29;20044;-88
2023/08/09 03:02:58;;;;;;;18.08;8.27;;;;;;;;;;4905713;29;20504;-89
2023/08/09 03:05:25;;;;;;;16.02;7.97;;;;;;;;;;4904759;29;20085;-89
2023/08/09 03:07:51;;;;;;;18.02;8.15;;;;;;;;;;4907077;29;20051;-87
2023/08/09 03:10:16;;;;;;;17.85;9.15;;;;;;;;;;4905917;29;20056;-89
2023/08/09 03:12:42;;;;;;;23.50;9.80;;;;;;;;;;4914823;29;20455;-89
2023/08/09 03:15:08;;;;;;;21.05;10.32;;;;;;;;;;4886416;29;20510;-88
2023/08/09 03:17:34;;;;;;;23.92;11.77;;;;;;;;;;4900357;29;20045;-88
2023/08/09 03:19:59;;;;;;;27.42;10.43;;;;;;;;;;4885842;29;20533;-89
2023/08/09 03:22:25;;;;;;;29.23;11.07;;;;;;;;;;4886026;29;20075;-89
2023/08/09 03:24:51;;;;;;;31.48;11.00;;;;;;;;;;4887391;29;20049;-89
2023/08/09 03:27:17;;;;;;;19.13;10.57;;;;;;;;;;4885556;29;20213;-89
2023/08/09 03:29:43;;;;;;;29.15;10.90;;;;;;;;;;4889890;29;20052;-87
2023/08/09 03:32:08;;;;;;;21.00;11.32;;;;;;;;;;4891843;29;20130;-88
2023/08/09 03:34:34;;;;;;;21.58;11.00;;;;;;;;;;4884102;29;20363;-87
2023/08/09 03:37:00;;;;;;;23.38;12.02;;;;;;;;;;4887386;29;20505;-89
2023/08/09 03:39:26;;;;;;;27.90;12.30;;;;;;;;;;4887557;29;20085;-89
2023/08/09 03:41:51;;;;;;;27.48;12.05;;;;;;;;;;4885637;29;20053;-87
2023/08/09 03:44:17;;;;;;;30.60;12.30;;;;;;;;;;4886469;29;20455;-89
2023/08/09 03:46:42;;;;;;;28.13;11.43;;;;;;;;;;4887025;29;20493;-87
2023/08/09 03:49:08;;;;;;;30.25;12.23;;;;;;;;;;4885247;29;20049;-88
2023/08/09 03:51:33;;;;;;;62.78;11.40;;;;;;;;;;4901186;29;20078;-88
2023/08/09 03:53:59;;;;;;;71.22;11.57;;;;;;;;;;4885163;29;20056;-89
2023/08/09 03:56:26;;;;;;;111.90;12.15;;;;;;;;;;4885896;29;20398;-89
2023/08/09 03:58:51;;;;;;;67.97;11.77;;;;;;;;;;4885783;29;20068;-88
2023/08/09 04:01:17;;;;;;;160.45;11.98;;;;;;;;;;4884548;29;20528;-88
2023/08/09 04:03:42;;;;;;;146.55;12.55;;;;;;;;;;4885028;29;20068;-88
2023/08/09 04:06:08;;;;;;;101.05;11.57;;;;;;;;;;4886019;29;20065;-88
2023/08/09 04:08:34;;;;;;;38.03;10.95;;;;;;;;;;4883119;29;20040;-89
2023/08/09 04:11:04;;;;;;;95.85;11.60;;;;;;;;;;4886814;29;20056;-87
2023/08/09 04:13:30;;;;;;;61.47;11.30;;;;;;;;;;4896646;29;20580;-88
2023/08/09 04:15:55;;;;;;;400.95;16.38;;;;;;;;;;4906919;29;20036;-88
2023/08/09 04:18:21;;;;;;;336.75;15.10;;;;;;;;;;4908897;29;20040;-88
2023/08/09 04:20:46;;;;;;;96.63;12.00;;;;;;;;;;4908018;29;20045;-88
2023/08/09 04:23:12;;;;;;;92.45;12.25;;;;;;;;;;4906899;29;20040;-88
2023/08/09 04:25:38;;;;;;;190.15;14.07;;;;;;;;;;4892085;29;20424;-88
2023/08/09 04:28:04;;;;;;;234.50;14.20;;;;;;;;;;4906897;29;20055;-87
2023/08/09 04:30:29;;;;;;;188.50;13.52;;;;;;;;;;4907992;29;20072;-87
2023/08/09 04:32:55;;;;;;;45.25;11.50;;;;;;;;;;4891730;29;20044;-87
2023/08/09 04:35:21;;;;;;;150.57;12.48;;;;;;;;;;4906043;29;20105;-88
2023/08/09 04:37:47;;;;;;;104.70;10.73;;;;;;;;;;4891340;29;20535;-89
2023/08/09 04:40:12;;;;;;;216.98;12.93;;;;;;;;;;4907800;29;20045;-89
2023/08/09 04:42:39;;;;;;;117.38;11.40;;;;;;;;;;4906651;29;20466;-88
2023/08/09 04:45:15;;;;;;;211.85;11.80;;;;;;;;;;4908691;29;20596;-88
2023/08/09 04:47:41;;;;;;;206.63;11.68;;;;;;;;;;4889624;29;20052;-89
2023/08/09 04:50:07;;;;;;;350.20;13.05;;;;;;;;;;4906808;29;20071;-89
2023/08/09 04:52:37;;;;;;;90.60;9.30;;;;;;;;;;4895681;29;20060;-88
2023/08/09 04:55:04;;;;;;;115.60;10.80;;;;;;;;;;4906164;29;20044;-88
2023/08/09 04:57:32;;;;;;;492.58;16.77;;;;;;;;;;4898916;29;20058;-88
2023/08/09 04:59:58;;;;;;;;;;;;;;;;;;4900670;29;20047;-87
2023/08/09 05:02:23;;;;;;;477.35;14.52;;;;;;;;;;4898503;29;19931;-88
2023/08/09 05:04:49;;;;;;;170.00;9.65;;;;;;;;;;4898773;29;20051;-88
2023/08/09 05:07:15;;;;;;;228.68;11.27;;;;;;;;;;4898783;29;20049;-88
2023/08/09 05:09:40;;;;;;;126.15;9.70;;;;;;;;;;4898499;29;20525;-88
2023/08/09 05:12:06;;;;;;;191.70;10.82;;;;;;;;;;4881250;29;20056;-87
2023/08/09 05:14:31;;;;;;;178.55;9.60;;;;;;;;;;4898245;29;20092;-88
2023/08/09 05:16:57;;;;;;;311.25;12.43;;;;;;;;;;4898325;29;20049;-88
2023/08/09 05:19:22;;;;;;;233.77;11.48;;;;;;;;;;4898173;29;20048;-87
2023/08/09 05:21:48;;;;;;;428.08;15.23;;;;;;;;;;4898435;29;20045;-88
2023/08/09 05:24:14;;;;;;;233.05;11.82;;;;;;;;;;4898105;29;20048;-87
2023/08/09 05:26:39;;;;;;;175.48;9.25;;;;;;;;;;4898371;29;20524;-87
2023/08/09 05:29:05;;;;;;;211.73;9.98;;;;;;;;;;4892783;29;20386;-87
2023/08/09 05:31:30;;;;;;;175.43;9.07;;;;;;;;;;4915997;29;20052;-89
2023/08/09 05:33:56;;;;;;;262.65;10.43;;;;;;;;;;4899149;29;20056;-87
2023/08/09 05:36:22;;;;;;;248.55;10.55;;;;;;;;;;4897885;29;20569;-87
2023/08/09 05:38:47;;;;;;;161.43;9.88;;;;;;;;;;4903295;29;20055;-87
2023/08/09 05:41:13;;;;;;;324.20;12.43;;;;;;;;;;4897990;29;20060;-87
2023/08/09 05:43:38;;;;;;;170.38;9.60;;;;;;;;;;4898181;29;20409;-86
2023/08/09 05:46:04;;;;;;;267.20;10.55;;;;;;;;;;4897852;29;20047;-87
2023/08/09 05:48:29;;;;;;;133.63;8.38;;;;;;;;;;4930987;29;20437;-87
2023/08/09 05:50:54;;;;;;;176.82;8.02;;;;;;;;;;4917007;29;20044;-87
2023/08/09 05:53:20;;;;;;;41.97;6.32;;;;;;;;;;4916319;29;20135;-87
2023/08/09 05:55:46;;;;;;;410.05;13.07;;;;;;;;;;4899687;29;20064;-87
2023/08/09 05:58:11;;;;;;;99.88;7.85;;;;;;;;;;4915628;29;20044;-87
2023/08/09 06:00:37;;;;;;;148.15;8.30;;;;;;;;;;4895870;29;20442;-86
2023/08/09 06:03:03;;;;;;;146.70;8.60;;;;;;;;;;4881272;29;20079;-88
2023/08/09 06:05:29;;;;;;;271.08;10.85;;;;;;;;;;4898412;29;20045;-87
2023/08/09 06:07:55;;;;;;;314.38;11.57;;;;;;;;;;4902577;29;20055;-89
2023/08/09 06:10:25;;;;;;;308.55;11.32;;;;;;;;;;4917563;29;20051;-89
2023/08/09 06:12:52;;;;;;;198.45;9.38;;;;;;;;;;4921919;29;20040;-87
2023/08/09 06:15:18;;;;;;;127.05;8.23;;;;;;;;;;4916637;29;20048;-89
2023/08/09 06:17:44;;;;;;;226.93;8.80;;;;;;;;;;4911523;29;20123;-87
2023/08/09 06:20:13;;;;;;;176.70;8.48;;;;;;;;;;4896494;29;20124;-87
2023/08/09 06:22:40;;;;;;;49.50;5.25;;;;;;;;;;4900969;29;20048;-86
2023/08/09 06:25:07;;;;;;;158.13;6.88;;;;;;;;;;4898604;29;20418;-86
2023/08/09 06:27:32;;;;;;;121.45;6.32;;;;;;;;;;4912148;29;20052;-87
2023/08/09 06:29:57;;;;;;;135.10;6.70;;;;;;;;;;4896731;29;20505;-86
2023/08/09 06:32:23;;;;;;;620.67;16.83;;;;;;;;;;4903513;29;20250;-87
2023/08/09 06:34:48;;;;;;;243.43;9.90;;;;;;;;;;4915572;29;20036;-86
2023/08/09 06:37:14;;;;;;;255.45;10.38;;;;;;;;;;4913961;29;20051;-86
2023/08/09 06:39:39;;;;;;;201.07;9.13;;;;;;;;;;4896529;29;20155;-86
2023/08/09 06:42:05;;;;;;;339.58;11.55;;;;;;;;;;4926441;29;20148;-86
2023/08/09 06:44:30;;;;;;;129.07;9.15;;;;;;;;;;4895171;29;20060;-86
2023/08/09 06:46:56;;;;;;;136.95;8.52;;;;;;;;;;4896786;29;20052;-87
2023/08/09 06:49:22;;;;;;;558.55;17.45;;;;;;;;;;4912328;29;20100;-86
2023/08/09 06:51:48;;;;;;;97.90;8.85;;;;;;;;;;4914953;29;20394;-87
2023/08/09 06:54:13;;;;;;;311.58;13.55;;;;;;;;;;4897440;29;20044;-87
2023/08/09 06:56:38;;;;;;;243.52;12.38;;;;;;;;;;4897326;29;20546;-87
2023/08/09 06:59:04;;;;;;;125.55;10.10;;;;;;;;;;4929189;29;20048;-86
2023/08/09 07:01:30;;;;;;;409.33;14.98;;;;;;;;;;4905107;29;20057;-88
2023/08/09 07:03:56;;;;;;;501.73;17.98;;;;;;;;;;4929412;29;20048;-89
2023/08/09 07:06:22;;;;;;;360.52;14.95;;;;;;;;;;4914741;29;20052;-87
2023/08/09 07:08:48;;;;;;;213.32;13.88;;;;;;;;;;4894132;29;20504;-87
2023/08/09 07:11:14;;;;;;;439.23;16.63;;;;;;;;;;4907259;29;20131;-89
2023/08/09 07:13:39;;;;;;;132.25;11.80;;;;;;;;;;4897826;29;20045;-88
2023/08/09 07:16:05;;;;;;;261.65;13.55;;;;;;;;;;4888029;29;20131;-87
2023/08/09 07:18:30;;;;;;;473.42;16.75;;;;;;;;;;4890572;29;20040;-90
2023/08/09 07:20:57;;;;;;;119.35;10.43;;;;;;;;;;4891409;29;20059;-88
2023/08/09 07:23:22;;;;;;;47.45;9.90;;;;;;;;;;4898493;29;20461;-89
2023/08/09 07:25:48;;;;;;;47.58;8.70;;;;;;;;;;4909179;29;20047;-90
2023/08/09 07:28:13;;;;;;;170.55;11.02;;;;;;;;;;4892113;29;20520;-88
2023/08/09 07:30:39;;;;;;;275.83;11.07;;;;;;;;;;4892189;29;20127;-88
2023/08/09 07:33:04;;;;;;;24.35;6.65;;;;;;;;;;4902763;29;20500;-88
2023/08/09 07:35:30;;;;;;;26.42;7.68;;;;;;;;;;4891042;29;20091;-89
2023/08/09 07:37:55;;;;;;;31.80;8.02;;;;;;;;;;4894178;29;20051;-88
2023/08/09 07:40:20;;;;;;;45.75;9.30;;;;;;;;;;4889477;29;20518;-89
2023/08/09 07:42:46;;;;;;;28.60;8.57;;;;;;;;;;4906826;29;20051;-88
2023/08/09 07:45:12;;;;;;;18.65;8.32;;;;;;;;;;4910173;29;20069;-89
2023/08/09 07:47:38;;;;;;;17.00;8.20;;;;;;;;;;4910864;29;20058;-89
2023/08/09 07:50:05;;;;;;;40.13;8.57;;;;;;;;;;4913182;29;20052;-90
2023/08/09 07:52:32;;;;;;;81.88;9.02;;;;;;;;;;4926061;29;20524;-90
2023/08/09 07:54:58;;;;;;;30.45;7.90;;;;;;;;;;4922182;29;20040;-92
2023/08/09 07:57:24;;;;;;;22.90;8.30;;;;;;;;;;4907707;29;20064;-92
2023/08/09 07:59:50;;;;;;;13.48;8.30;;;;;;;;;;4932538;29;20096;-90
2023/08/09 08:02:18;;;;;;;11.65;7.88;;;;;;;;;;4898098;29;20055;-91
2023/08/09 08:04:44;;;;;;;19.30;7.85;;;;;;;;;;4895650;29;20032;-90
2023/08/09 08:07:09;;;;;;;10.00;6.88;;;;;;;;;;4896623;29;20123;-89
2023/08/09 08:09:40;;;;;;;10.88;7.07;;;;;;;;;;4897090;29;20413;-89
2023/08/09 08:12:07;;;;;;;11.73;7.28;;;;;;;;;;4904474;29;20230;-88
2023/08/09 08:14:32;;;;;;;61.05;7.78;;;;;;;;;;4912983;29;20087;-88
2023/08/09 08:16:57;;;;;;;7.78;6.38;;;;;;;;;;4913647;29;20048;-89
2023/08/09 08:19:23;;;;;;;11.05;8.00;;;;;;;;;;4924143;29;20132;-88
2023/08/09 08:21:48;;;;;;;11.30;7.45;;;;;;;;;;4893601;29;20045;-89
2023/08/09 08:24:14;;;;;;;21.48;8.15;;;;;;;;;;4894939;29;20044;-91
2023/08/09 08:26:39;;;;;;;87.78;10.68;;;;;;;;;;4894459;29;20569;-90
2023/08/09 08:29:05;;;;;;;88.40;11.35;;;;;;;;;;4897071;29;20047;-87
2023/08/09 08:31:32;;;;;;;15.27;10.65;;;;;;;;;;4912019;29;20064;-88
2023/08/09 08:33:58;;;;;;;21.48;10.23;;;;;;;;;;4895696;29;20130;-89
2023/08/09 08:36:23;;;;;;;11.63;8.60;;;;;;;;;;4896008;29;21134;-90
2023/08/09 08:38:53;;;;;;;11.80;7.60;;;;;;;;;;4913565;29;20168;-90
2023/08/09 08:41:18;;;;;;;9.73;7.70;;;;;;;;;;4895913;29;20782;-90
2023/08/09 08:43:45;;;;;;;9.00;7.65;;;;;;;;;;4896053;29;20132;-91
2023/08/09 08:46:15;;;;;;;10.82;7.93;;;;;;;;;;4895905;29;20044;-89
2023/08/09 08:48:44;;;;;;;13.88;9.25;;;;;;;;;;4894597;29;20104;-91
2023/08/09 08:51:10;;;;;;;11.38;9.02;;;;;;;;;;4893183;29;20044;-89
2023/08/09 08:53:35;;;;;;;10.88;9.05;;;;;;;;;;4895542;29;20051;-90
2023/08/09 08:56:01;;;;;;;10.82;9.25;;;;;;;;;;4894801;29;20056;-90
2023/08/09 08:58:27;;;;;;;8.63;7.72;;;;;;;;;;4898417;29;20052;-91
2023/08/09 09:00:53;;;;;;;9.05;6.38;;;;;;;;;;4897810;29;20144;-91
2023/08/09 09:03:19;;;;;;;6.85;5.65;;;;;;;;;;4895764;29;20131;-91
2023/08/09 09:05:44;;;;;;;7.25;6.05;;;;;;;;;;4901686;29;20071;-89
2023/08/09 09:08:13;;;;;;;5.35;4.43;;;;;;;;;;4907615;29;20079;-87
2023/08/09 09:10:43;;;;;;;6.90;5.82;;;;;;;;;;4893458;29;20051;-90
2023/08/09 09:13:08;;;;;;;7.60;6.38;;;;;;;;;;4906624;29;20040;-88
2023/08/09 09:15:35;;;;;;;7.53;6.43;;;;;;;;;;4910935;29;20051;-88
2023/08/09 09:18:04;;;;;;;8.48;6.80;;;;;;;;;;4910144;29;20040;-85
2023/08/09 09:20:31;;;;;;;5.03;4.50;;;;;;;;;;4910156;29;20107;-87
2023/08/09 09:22:56;;;;;;;6.57;4.97;;;;;;;;;;4893763;29;20052;-87
2023/08/09 09:25:23;;;;;;;7.32;4.05;;;;;;;;;;4888023;29;20553;-87
2023/08/09 09:27:53;;;;;;;4.95;4.45;;;;;;;;;;4908862;29;20099;-86
2023/08/09 09:30:21;;;;;;;4.55;3.42;;;;;;;;;;4893183;29;20067;-87
2023/08/09 09:32:52;;;;;;;4.80;3.70;;;;;;;;;;4910005;29;20052;-87
2023/08/09 09:35:19;;;;;;;5.15;3.55;;;;;;;;;;4909331;29;20060;-87
2023/08/09 09:37:51;;;;;;;4.47;3.05;;;;;;;;;;4910460;29;20062;-86
2023/08/09 09:40:30;;;;;;;5.10;2.78;;;;;;;;;;4909395;29;20056;-87
2023/08/09 09:42:58;;;;;;;8.98;2.70;;;;;;;;;;4909489;29;20100;-87
2023/08/09 09:45:28;;;;;;;7.60;2.58;;;;;;;;;;4892423;29;20048;-87
2023/08/09 09:47:55;;;;;;;9.52;2.80;;;;;;;;;;4910006;29;20040;-86
2023/08/09 09:50:23;;;;;;;10.70;2.67;;;;;;;;;;4909393;29;20156;-88
2023/08/09 09:52:49;;;;;;;10.75;2.65;;;;;;;;;;4908931;29;20541;-87
2023/08/09 09:55:20;;;;;;;12.70;2.67;;;;;;;;;;4909371;29;20127;-87
2023/08/09 09:57:49;;;;;;;12.45;2.88;;;;;;;;;;4909811;29;20059;-90
2023/08/09 10:00:15;;;;;;;9.85;2.60;;;;;;;;;;4910475;29;20051;-88
2023/08/09 10:02:49;;;;;;;6.68;2.17;;;;;;;;;;4910709;29;20047;-89
2023/08/09 10:05:21;;;;;;;6.72;2.00;;;;;;;;;;4909448;29;20100;-88
2023/08/09 10:07:49;;;;;;;11.13;2.65;;;;;;;;;;4910831;29;20074;-90
2023/08/09 10:10:16;;;;;;;9.68;2.63;;;;;;;;;;4910234;29;20044;-88
2023/08/09 10:12:49;;;;;;;8.70;2.10;;;;;;;;;;4909072;29;20080;-88
2023/08/09 10:15:18;;;;;;;8.18;2.25;;;;;;;;;;4909306;29;20040;-87
2023/08/09 10:17:49;;;;;;;8.20;2.33;;;;;;;;;;4909380;29;20075;-88
2023/08/09 10:20:16;;;;;;;6.57;1.73;;;;;;;;;;4892055;29;20037;-86
2023/08/09 10:22:46;;;;;;;4.78;1.70;;;;;;;;;;4891411;29;20044;-86
2023/08/09 10:25:12;;;;;;;3.88;1.65;;;;;;;;;;4908573;29;20052;-87
2023/08/09 10:27:53;;;;;;;5.75;2.08;;;;;;;;;;4905935;29;20052;-85
2023/08/09 10:30:28;;;;;;;2.30;1.55;;;;;;;;;;4907518;29;20469;-85
2023/08/09 10:32:55;;;;;;;2.03;1.60;;;;;;;;;;4891741;29;20168;-86
2023/08/09 10:35:44;;;;;;;2.47;1.58;;;;;;;;;;4888381;29;20836;-85
2023/08/09 10:38:15;;;;;;;3.80;1.60;;;;;;;;;;4922130;29;20048;-92
2023/08/09 10:40:42;;;;;;;1.85;1.63;;;;;;;;;;4918380;29;20548;-86
2023/08/09 10:43:10;;;;;;;1.70;1.60;;;;;;;;;;4914691;29;20055;-85
2023/08/09 10:45:37;;;;;;;1.63;1.38;;;;;;;;;;4915946;29;20058;-84
2023/08/09 10:48:17;;;;;;;3.45;1.40;;;;;;;;;;4915736;29;20130;-85
2023/08/09 10:50:43;;;;;;;1.58;1.20;;;;;;;;;;4911590;29;20052;-86
2023/08/09 10:53:09;;;;;;;1.70;1.23;;;;;;;;;;4915154;29;20102;-85
2023/08/09 10:55:35;;;;;;;2.05;1.33;;;;;;;;;;4912624;29;20528;-86
2023/08/09 10:58:02;;;;;;;1.58;1.17;;;;;;;;;;4907106;29;20074;-87
2023/08/09 11:00:35;;;;;;;1.35;1.10;;;;;;;;;;4896869;29;20106;-86
2023/08/09 11:03:01;;;;;;;1.45;1.25;;;;;;;;;;4900706;29;20040;-88
2023/08/09 11:05:29;;;;;;;2.42;1.30;;;;;;;;;;4907032;29;20050;-89
2023/08/09 11:07:59;;;;;;;;;;;;;;;;;;4888351;29;20056;-88
2023/08/09 11:10:36;;;;;;;1.25;1.15;;;;;;;;;;4893651;29;19962;-87
2023/08/09 11:13:18;;;;;;;3.20;1.20;;;;;;;;;;4891125;29;20040;-89
2023/08/09 11:15:46;;;;;;;2.05;1.10;;;;;;;;;;4889751;29;20069;-89
2023/08/09 11:18:12;;;;;;;1.60;1.38;;;;;;;;;;4889003;29;20041;-88
2023/08/09 11:20:38;;;;;;;3.25;1.60;;;;;;;;;;4893857;29;20516;-89
2023/08/09 11:23:04;;;;;;;2.20;1.30;;;;;;;;;;4908104;29;20559;-85
2023/08/09 11:25:31;;;;;;;2.28;1.42;;;;;;;;;;4908660;29;20051;-88
2023/08/09 11:27:58;;;;;;;1.63;1.00;;;;;;;;;;4908972;29;20052;-87
2023/08/09 11:30:25;;;;;;;2.33;0.80;;;;;;;;;;4910840;29;20059;-88
2023/08/09 11:33:01;;;;;;;1.95;1.00;;;;;;;;;;4908977;29;20580;-88
2023/08/09 11:35:39;;;;;;;1.45;0.90;;;;;;;;;;4908742;29;20055;-87
2023/08/09 11:38:12;;;;;;;2.10;0.95;;;;;;;;;;4918485;29;20473;-89
2023/08/09 11:40:46;;;;;;;1.98;0.73;;;;;;;;;;4888624;29;20056;-88
2023/08/09 11:43:13;;;;;;;1.02;0.93;;;;;;;;;;4890637;29;20056;-88
2023/08/09 11:45:55;;;;;;;1.27;0.73;;;;;;;;;;4917319;29;20047;-88
2023/08/09 11:48:36;;;;;;;2.40;1.20;;;;;;;;;;4913619;29;20465;-88
2023/08/09 11:51:06;;;;;;;1.65;1.23;;;;;;;;;;4903633;29;20572;-89
2023/08/09 11:53:33;;;;;;;2.38;1.60;;;;;;;;;;4915536;29;20056;-89
2023/08/09 11:56:04;;;;;;;1.58;1.10;;;;;;;;;;4904022;29;20051;-87
2023/08/09 11:58:32;;;;;;;2.40;1.52;;;;;;;;;;4899622;29;20070;-88
2023/08/09 12:00:58;;;;;;;;;;;;;;;;;;4902561;29;20049;-90
2023/08/09 12:03:24;;;;;;;3.05;1.55;;;;;;;;;;4897776;29;19982;-87
2023/08/09 12:05:53;;;;;;;1.60;1.50;;;;;;;;;;4882722;29;20789;-90
2023/08/09 12:08:37;;;;;;;1.75;1.55;;;;;;;;;;4901313;29;20052;-90
2023/08/09 12:11:04;;;;;;;2.20;1.60;;;;;;;;;;4905099;29;20040;-91
2023/08/09 12:13:29;;;;;;;3.10;1.50;;;;;;;;;;4902400;29;20059;-92
2023/08/09 12:15:56;;;;;;;2.08;1.50;;;;;;;;;;4904643;29;20156;-95
2023/08/09 12:18:22;;;;;;;2.95;1.73;;;;;;;;;;4901135;29;20482;-95
2023/08/09 12:20:48;;;;;;;2.00;1.70;;;;;;;;;;4900811;29;20072;-91
2023/08/09 12:23:13;;;;;;;2.20;1.65;;;;;;;;;;4901101;29;20048;-91
2023/08/09 12:25:39;;;;;;;4.63;2.03;;;;;;;;;;4903006;29;20501;-89
2023/08/09 12:28:04;;;;;;;2.60;1.83;;;;;;;;;;4901960;29;20060;-89
2023/08/09 12:30:30;;;;;;;3.25;1.70;;;;;;;;;;4904242;29;20051;-89
2023/08/09 12:32:56;;;;;;;1.88;1.67;;;;;;;;;;4905291;29;20051;-90
2023/08/09 12:35:21;;;;;;;2.78;1.95;;;;;;;;;;4900792;29;20091;-90
2023/08/09 12:37:47;;;;;;;2.42;1.83;;;;;;;;;;4902813;29;20044;-86
2023/08/09 12:40:13;;;;;;;3.17;1.65;;;;;;;;;;4901732;29;20525;-86
2023/08/09 12:42:38;;;;;;;2.05;1.30;;;;;;;;;;4900924;29;20528;-86
2023/08/09 12:45:05;;;;;;;3.80;1.50;;;;;;;;;;4902442;29;20071;-86
2023/08/09 12:47:31;;;;;;;1.38;1.23;;;;;;;;;;4899112;29;20055;-86
2023/08/09 12:49:57;;;;;;;1.48;1.15;;;;;;;;;;4905248;29;20052;-88
2023/08/09 12:52:23;;;;;;;1.67;1.40;;;;;;;;;;4904066;29;20052;-86
2023/08/09 12:54:49;;;;;;;2.45;1.40;;;;;;;;;;4909755;29;20040;-87
2023/08/09 12:57:14;;;;;;;2.58;1.55;;;;;;;;;;4901851;29;20580;-87
2023/08/09 12:59:41;;;;;;;4.78;1.40;;;;;;;;;;4908251;29;20161;-86
2023/08/09 13:02:07;;;;;;;1.40;1.30;;;;;;;;;;4912059;29;20764;-86
2023/08/09 13:04:34;;;;;;;2.85;1.50;;;;;;;;;;4912421;29;20141;-87
2023/08/09 13:06:59;;;;;;;1.75;1.30;;;;;;;;;;4891873;29;20051;-86
2023/08/09 13:09:25;;;;;;;1.60;1.48;;;;;;;;;;4906771;29;20037;-86
2023/08/09 13:12:05;;;;;;;4.68;1.45;;;;;;;;;;4910482;29;20075;-84
2023/08/09 13:14:30;;;;;;;4.28;1.50;;;;;;;;;;4905509;29;20054;-87
2023/08/09 13:16:55;;;;;;;2.88;1.23;;;;;;;;;;4913590;29;20044;-88
2023/08/09 13:19:21;;;;;;;2.50;1.38;;;;;;;;;;4909301;29;20084;-87
2023/08/09 13:21:46;;;;;;;2.45;1.33;;;;;;;;;;4900171;29;20131;-93
2023/08/09 13:24:13;;;;;;;3.78;1.52;;;;;;;;;;4916617;29;20166;-92
2023/08/09 13:26:38;;;;;;;2.47;1.30;;;;;;;;;;4911259;29;20067;-90
2023/08/09 13:29:03;;;;;;;3.35;1.10;;;;;;;;;;4911502;29;20147;-88
2023/08/09 13:31:29;;;;;;;2.10;1.40;;;;;;;;;;4898998;29;20079;-91
2023/08/09 13:33:56;;;;;;;1.77;1.10;;;;;;;;;;4915687;29;20512;-89
2023/08/09 13:36:22;;;;;;;2.17;1.33;;;;;;;;;;4898987;29;20047;-90
2023/08/09 13:38:48;;;;;;;1.98;1.30;;;;;;;;;;4894478;29;20040;-90
2023/08/09 13:41:13;;;;;;;3.25;1.27;;;;;;;;;;4903708;29;20054;-90
2023/08/09 13:43:39;;;;;;;1.02;0.95;;;;;;;;;;4893968;29;20817;-90
2023/08/09 13:46:05;;;;;;;2.30;1.00;;;;;;;;;;4909653;29;20072;-88
2023/08/09 13:48:31;;;;;;;2.28;1.30;;;;;;;;;;4891532;29;20049;-88
2023/08/09 13:50:56;;;;;;;3.13;1.15;;;;;;;;;;4908085;29;20123;-89
2023/08/09 13:53:22;;;;;;;1.90;1.40;;;;;;;;;;4907443;29;20521;-88
2023/08/09 13:55:47;;;;;;;3.38;1.13;;;;;;;;;;4908421;29;20115;-87
2023/08/09 13:58:13;;;;;;;2.75;1.35;;;;;;;;;;4904210;29;20044;-89
2023/08/09 14:00:39;;;;;;;2.13;1.27;;;;;;;;;;4910031;29;20498;-89
2023/08/09 14:03:05;;;;;;;2.13;1.17;;;;;;;;;;4903509;29;20052;-87
2023/08/09 14:05:34;;;;;;;2.03;1.20;;;;;;;;;;4904104;29;20048;-87
2023/08/09 14:07:59;;;;;;;;;;;;;;;;;;4909359;29;20080;-86
2023/08/09 14:10:26;;;;;;;3.35;1.35;;;;;;;;;;4907586;29;20270;-86
2023/08/09 14:12:51;;;;;;;2.65;1.30;;;;;;;;;;4908956;29;20076;-86
2023/08/09 14:15:17;;;;;;;4.03;1.55;;;;;;;;;;4905048;29;20106;-86
2023/08/09 14:17:43;;;;;;;2.30;1.60;;;;;;;;;;4905756;29;20518;-84
2023/08/09 14:20:12;;;;;;;2.05;1.80;;;;;;;;;;4907935;29;20115;-86
2023/08/09 14:22:37;;;;;;;2.70;1.83;;;;;;;;;;4891726;29;20500;-85
2023/08/09 14:25:03;;;;;;;2.72;1.60;;;;;;;;;;4908335;29;20047;-86
2023/08/09 14:27:28;;;;;;;5.47;1.75;;;;;;;;;;4907917;29;20051;-86
2023/08/09 14:29:53;;;;;;;5.25;1.60;;;;;;;;;;4908617;29;20054;-87